Time;durP1;ratioP1;P1;durP2;ratioP2;P2;SDS_P1;SDS_P2;PMS_P1;PMS_P2;Temp;Humidity;BMP_temperature;BMP_pressure;BME280_temperature;BME280_humidity;BME280_pressure;Samples;Min_cycle;Max_cycle;Signal;HPM_P1;HPM_P2
2024/04/02 00:01:07;;;;;;;0.70;0.63;;;10.60;77.00;;;;;;5038422;28;20052;-77
2024/04/02 00:03:36;;;;;;;1.67;0.80;;;10.60;76.20;;;;;;5038208;28;20109;-76
2024/04/02 00:06:02;;;;;;;0.73;0.60;;;10.60;76.60;;;;;;5085238;28;20044;-76
2024/04/02 00:08:29;;;;;;;0.85;0.75;;;10.60;76.30;;;;;;5086090;28;20045;-77
2024/04/02 00:11:03;;;;;;;0.52;0.52;;;10.60;76.30;;;;;;5038297;28;20055;-77
2024/04/02 00:13:29;;;;;;;1.05;0.50;;;10.60;77.10;;;;;;5038070;28;20040;-77
2024/04/02 00:15:56;;;;;;;0.70;0.63;;;10.60;77.90;;;;;;5037924;28;20056;-77
2024/04/02 00:18:24;;;;;;;0.77;0.65;;;10.60;78.50;;;;;;5055071;28;20061;-77
2024/04/02 00:20:59;;;;;;;0.68;0.68;;;10.50;78.50;;;;;;5053429;28;20063;-77
2024/04/02 00:23:25;;;;;;;0.93;0.70;;;10.50;79.60;;;;;;5053783;28;20114;-77
2024/04/02 00:26:02;;;;;;;1.00;0.70;;;10.50;79.90;;;;;;5037955;28;20547;-76
2024/04/02 00:28:28;;;;;;;0.77;0.63;;;10.50;79.90;;;;;;5051253;28;20055;-76
2024/04/02 00:31:07;;;;;;;0.82;0.80;;;10.50;81.30;;;;;;5038258;28;20056;-76
2024/04/02 00:33:33;;;;;;;1.45;0.80;;;10.50;81.20;;;;;;5035586;28;20067;-76
2024/04/02 00:36:03;;;;;;;1.48;0.90;;;10.50;81.40;;;;;;5038189;28;20067;-77
2024/04/02 00:38:30;;;;;;;0.80;0.70;;;10.40;82.10;;;;;;5037548;28;20052;-76
2024/04/02 00:41:00;;;;;;;1.33;0.70;;;10.40;82.30;;;;;;5037832;28;20055;-76
2024/04/02 00:43:26;;;;;;;0.80;0.60;;;10.40;81.70;;;;;;5038175;28;20064;-77
2024/04/02 00:45:53;;;;;;;1.08;0.90;;;10.40;81.50;;;;;;5057074;28;20064;-77
2024/04/02 00:48:19;;;;;;;1.20;0.75;;;10.40;82.30;;;;;;5037615;28;20048;-76
2024/04/02 00:50:47;;;;;;;1.23;0.90;;;10.40;82.40;;;;;;5066689;28;20059;-76
2024/04/02 00:53:15;;;;;;;0.82;0.60;;;10.30;82.60;;;;;;5037960;28;20068;-76
2024/04/02 00:55:48;;;;;;;0.73;0.70;;;10.30;82.40;;;;;;5054345;28;20125;-77
2024/04/02 00:58:17;;;;;;;1.00;0.80;;;10.30;83.00;;;;;;5053164;28;20048;-76
2024/04/02 01:00:43;;;;;;;2.17;0.75;;;10.30;83.30;;;;;;5045716;28;20056;-76
2024/04/02 01:03:10;;;;;;;0.70;0.70;;;10.30;83.70;;;;;;5064011;28;20056;-77
2024/04/02 01:05:38;;;;;;;1.10;0.88;;;10.20;83.40;;;;;;5061475;28;20052;-77
2024/04/02 01:08:04;;;;;;;0.70;0.70;;;10.20;83.80;;;;;;5053084;28;20053;-77
2024/04/02 01:10:36;;;;;;;0.90;0.70;;;10.20;83.80;;;;;;5037707;28;20044;-76
2024/04/02 01:13:02;;;;;;;1.42;0.90;;;10.20;83.70;;;;;;5037705;28;20056;-76
2024/04/02 01:15:28;;;;;;;1.08;0.70;;;10.20;83.00;;;;;;5038399;28;20045;-76
2024/04/02 01:17:54;;;;;;;1.50;0.65;;;10.20;83.10;;;;;;5037420;28;20052;-77
2024/04/02 01:20:21;;;;;;;1.77;0.90;;;10.20;82.30;;;;;;5037564;28;20049;-77
2024/04/02 01:22:50;;;;;;;1.08;0.98;;;10.30;81.90;;;;;;5048154;28;20068;-77
2024/04/02 01:25:23;;;;;;;1.05;0.90;;;10.30;80.90;;;;;;5037616;28;20061;-76
2024/04/02 01:27:51;;;;;;;0.95;0.85;;;10.30;81.00;;;;;;5053330;28;20045;-76
2024/04/02 01:30:19;;;;;;;0.63;0.57;;;10.30;80.60;;;;;;5038203;28;20434;-76
2024/04/02 01:32:47;;;;;;;1.48;0.60;;;10.30;79.20;;;;;;5054157;28;20434;-76
2024/04/02 01:35:15;;;;;;;2.10;0.77;;;10.30;79.00;;;;;;5053897;28;20465;-76
2024/04/02 01:37:44;;;;;;;1.05;0.75;;;10.40;78.50;;;;;;5053493;28;20052;-76
2024/04/02 01:40:10;;;;;;;0.98;0.68;;;10.40;79.10;;;;;;5037376;28;20056;-76
2024/04/02 01:42:38;;;;;;;1.00;0.60;;;10.50;78.20;;;;;;5037524;28;20385;-77
2024/04/02 01:45:05;;;;;;;1.25;0.68;;;10.50;78.10;;;;;;5053620;28;20052;-77
2024/04/02 01:47:31;;;;;;;1.20;0.73;;;10.50;78.50;;;;;;5053902;28;20048;-76
2024/04/02 01:49:57;;;;;;;2.45;0.70;;;10.50;78.20;;;;;;5053756;28;20428;-76
2024/04/02 01:52:23;;;;;;;1.10;0.70;;;10.50;77.20;;;;;;5038395;28;20354;-76
2024/04/02 01:54:49;;;;;;;1.13;0.80;;;10.50;76.90;;;;;;5057202;28;20131;-76
2024/04/02 01:57:17;;;;;;;2.15;0.80;;;10.50;76.40;;;;;;5041155;28;20060;-77
2024/04/02 01:59:43;;;;;;;1.42;0.70;;;10.50;77.10;;;;;;5057503;28;20048;-77
2024/04/02 02:02:11;;;;;;;1.27;0.95;;;10.50;76.90;;;;;;5042034;28;20087;-77
2024/04/02 02:04:37;;;;;;;1.00;0.65;;;10.50;76.90;;;;;;5040765;28;20056;-77
2024/04/02 02:07:05;;;;;;;1.40;0.70;;;10.50;77.10;;;;;;5056889;28;20052;-77
2024/04/02 02:09:33;;;;;;;0.65;0.57;;;10.50;76.60;;;;;;5040553;28;20056;-76
2024/04/02 02:12:02;;;;;;;2.00;0.75;;;10.50;77.00;;;;;;5040456;28;20060;-76
2024/04/02 02:14:28;;;;;;;1.00;0.50;;;10.50;78.10;;;;;;5040191;28;20048;-76
2024/04/02 02:16:54;;;;;;;1.23;0.50;;;10.50;78.70;;;;;;5041757;28;20095;-77
2024/04/02 02:19:22;;;;;;;0.65;0.50;;;10.40;81.70;;;;;;5040585;28;20053;-76
2024/04/02 02:21:49;;;;;;;0.40;0.40;;;10.30;82.90;;;;;;5040568;28;20052;-77
2024/04/02 02:24:14;;;;;;;0.82;0.60;;;10.20;84.20;;;;;;5040317;28;20118;-76
2024/04/02 02:26:40;;;;;;;1.65;0.70;;;10.10;84.90;;;;;;5040308;28;20377;-77
2024/04/02 02:29:06;;;;;;;0.85;0.50;;;10.10;85.90;;;;;;5039966;28;20053;-76
2024/04/02 02:31:35;;;;;;;1.25;0.60;;;10.00;86.50;;;;;;5039842;28;20128;-77
2024/04/02 02:34:05;;;;;;;0.80;0.80;;;10.00;87.70;;;;;;5056558;28;20045;-76
2024/04/02 02:36:31;;;;;;;2.15;1.02;;;9.90;89.90;;;;;;5039973;28;20060;-76
2024/04/02 02:38:57;;;;;;;0.85;0.50;;;9.80;90.50;;;;;;5039853;28;20088;-76
2024/04/02 02:41:23;;;;;;;1.48;0.70;;;9.80;91.00;;;;;;5040211;28;20075;-76
2024/04/02 02:43:51;;;;;;;0.77;0.60;;;9.70;91.50;;;;;;5040249;28;20057;-76
2024/04/02 02:46:17;;;;;;;1.17;0.82;;;9.70;91.90;;;;;;5056040;28;20103;-77
2024/04/02 02:48:45;;;;;;;1.25;1.00;;;9.60;92.00;;;;;;5041279;28;20123;-77
2024/04/02 02:51:11;;;;;;;1.27;0.90;;;9.60;92.30;;;;;;5081694;28;20456;-76
2024/04/02 02:53:37;;;;;;;0.85;0.65;;;9.60;92.50;;;;;;5039501;28;20056;-76
2024/04/02 02:56:03;;;;;;;0.65;0.65;;;9.60;92.60;;;;;;5039799;28;20048;-76
2024/04/02 02:58:29;;;;;;;1.13;0.70;;;9.60;92.40;;;;;;5037365;28;20052;-76
2024/04/02 03:00:55;;;;;;;0.60;0.60;;;9.60;92.40;;;;;;5039652;28;20091;-76
2024/04/02 03:03:21;;;;;;;0.60;0.60;;;9.70;92.50;;;;;;5057673;28;20082;-76
2024/04/02 03:05:56;;;;;;;2.38;1.08;;;9.60;91.70;;;;;;5053616;28;20060;-76
2024/04/02 03:08:23;;;;;;;0.65;0.65;;;9.70;91.60;;;;;;5039153;28;20405;-76
2024/04/02 03:11:03;;;;;;;0.70;0.70;;;9.70;91.50;;;;;;5056195;28;20151;-76
2024/04/02 03:13:30;;;;;;;1.73;0.57;;;9.70;91.40;;;;;;5067469;28;20048;-76
2024/04/02 03:15:56;;;;;;;0.85;0.57;;;9.70;91.10;;;;;;5055851;28;20227;-76
2024/04/02 03:18:22;;;;;;;0.50;0.50;;;9.70;90.60;;;;;;5056707;28;20473;-77
2024/04/02 03:20:48;;;;;;;1.00;0.57;;;9.80;90.10;;;;;;5055449;28;20484;-76
2024/04/02 03:23:16;;;;;;;0.60;0.50;;;9.90;89.50;;;;;;5055598;28;20048;-76
2024/04/02 03:25:50;;;;;;;2.05;0.63;;;9.90;88.80;;;;;;5055623;28;20068;-76
2024/04/02 03:28:16;;;;;;;;;;;10.00;86.40;;;;;;5055855;28;20059;-76
2024/04/02 03:30:42;;;;;;;0.50;0.50;;;10.00;86.00;;;;;;5021980;28;20184;-77
2024/04/02 03:33:12;;;;;;;6.82;3.35;;;10.00;86.00;;;;;;5037129;28;20048;-78
2024/04/02 03:35:38;;;;;;;20.23;9.60;;;10.10;85.10;;;;;;5038995;28;20092;-77
2024/04/02 03:38:04;;;;;;;9.38;4.15;;;10.10;84.70;;;;;;5038459;28;20162;-77
2024/04/02 03:40:34;;;;;;;6.18;2.97;;;10.10;84.20;;;;;;5038672;28;20071;-76
2024/04/02 03:43:00;;;;;;;5.57;3.00;;;10.20;83.50;;;;;;5038499;28;20109;-77
2024/04/02 03:45:28;;;;;;;7.25;3.85;;;10.20;82.20;;;;;;5022590;28;20084;-77
2024/04/02 03:47:56;;;;;;;3.03;1.55;;;10.30;82.40;;;;;;5039294;28;20048;-76
2024/04/02 03:50:23;;;;;;;0.65;0.52;;;10.20;82.00;;;;;;5038824;28;20138;-76
2024/04/02 03:52:49;;;;;;;0.70;0.50;;;10.20;81.70;;;;;;5038435;28;20071;-76
2024/04/02 03:55:15;;;;;;;1.60;0.60;;;10.30;81.80;;;;;;5038439;28;20140;-77
2024/04/02 03:57:43;;;;;;;0.60;0.50;;;10.30;81.10;;;;;;5038717;28;20092;-77
2024/04/02 04:00:09;;;;;;;0.85;0.50;;;10.30;80.50;;;;;;5052207;28;20126;-76
2024/04/02 04:02:37;;;;;;;1.27;0.55;;;10.30;80.10;;;;;;5038391;28;20056;-77
2024/04/02 04:05:06;;;;;;;1.95;0.70;;;10.40;80.10;;;;;;5037610;28;20374;-76
2024/04/02 04:07:35;;;;;;;0.82;0.60;;;10.30;79.10;;;;;;5053327;28;20048;-76
2024/04/02 04:10:03;;;;;;;0.50;0.50;;;10.40;79.40;;;;;;5054920;28;20063;-76
2024/04/02 04:12:31;;;;;;;1.52;0.63;;;10.40;79.20;;;;;;5038650;28;20079;-76
2024/04/02 04:15:02;;;;;;;0.80;0.50;;;10.40;79.60;;;;;;5037225;28;20473;-77
2024/04/02 04:17:30;;;;;;;0.88;0.50;;;10.40;79.90;;;;;;5055206;28;20048;-76
2024/04/02 04:19:56;;;;;;;1.48;0.70;;;10.40;79.60;;;;;;5037679;28;20057;-76
2024/04/02 04:22:22;;;;;;;0.50;0.50;;;10.40;79.00;;;;;;5038125;28;20056;-76
2024/04/02 04:25:02;;;;;;;1.00;0.47;;;10.40;79.00;;;;;;5037817;28;20396;-76
2024/04/02 04:27:32;;;;;;;0.63;0.60;;;10.40;79.40;;;;;;5037859;28;20055;-76
2024/04/02 04:30:05;;;;;;;1.05;0.43;;;10.40;78.80;;;;;;5054359;28;20473;-77
2024/04/02 04:32:32;;;;;;;0.77;0.50;;;10.40;78.50;;;;;;5034532;28;20064;-76
2024/04/02 04:35:01;;;;;;;0.75;0.68;;;10.50;77.80;;;;;;5054362;28;20098;-77
2024/04/02 04:37:29;;;;;;;2.55;1.40;;;10.50;77.40;;;;;;5074693;28;20397;-77
2024/04/02 04:39:55;;;;;;;3.08;1.98;;;10.50;77.00;;;;;;5037988;28;20835;-76
2024/04/02 04:42:24;;;;;;;11.75;5.97;;;10.50;76.90;;;;;;5037754;28;20048;-76
2024/04/02 04:44:51;;;;;;;2.95;1.23;;;10.50;77.40;;;;;;5037318;28;20060;-76
2024/04/02 04:47:17;;;;;;;1.90;1.02;;;10.50;77.10;;;;;;5037591;28;20052;-76
2024/04/02 04:49:42;;;;;;;4.32;2.25;;;10.50;76.90;;;;;;5055672;28;20084;-76
2024/04/02 04:52:08;;;;;;;2.50;1.10;;;10.50;77.00;;;;;;5037821;28;20087;-76
2024/04/02 04:54:35;;;;;;;3.63;1.63;;;10.50;76.80;;;;;;5054010;28;20044;-76
2024/04/02 04:57:04;;;;;;;7.90;3.22;;;10.50;77.20;;;;;;5065535;28;20049;-77
2024/04/02 04:59:30;;;;;;;3.72;1.70;;;10.50;77.00;;;;;;5054027;28;20056;-76
2024/04/02 05:01:56;;;;;;;3.30;1.35;;;10.60;76.90;;;;;;5037471;28;20071;-76
2024/04/02 05:04:22;;;;;;;2.25;1.50;;;10.60;77.40;;;;;;5037655;28;20118;-76
2024/04/02 05:06:52;;;;;;;2.25;1.38;;;10.60;78.10;;;;;;5038906;28;20067;-77
2024/04/02 05:09:21;;;;;;;3.78;1.98;;;10.60;77.60;;;;;;5085042;28;20044;-76
2024/04/02 05:11:49;;;;;;;4.28;2.20;;;10.60;77.70;;;;;;5054443;28;20784;-77
2024/04/02 05:14:16;;;;;;;1.67;0.90;;;10.60;77.20;;;;;;5053752;28;20059;-77
2024/04/02 05:16:45;;;;;;;1.45;0.95;;;10.60;76.90;;;;;;5053574;28;20048;-76
2024/04/02 05:19:12;;;;;;;4.40;1.70;;;10.70;75.50;;;;;;5037663;28;20068;-77
2024/04/02 05:21:40;;;;;;;5.43;2.72;;;10.70;75.50;;;;;;5037061;28;20052;-76
2024/04/02 05:24:06;;;;;;;2.28;0.93;;;10.70;75.70;;;;;;5035074;28;20052;-76
2024/04/02 05:26:31;;;;;;;1.42;1.00;;;10.80;75.00;;;;;;5036040;28;20429;-77
2024/04/02 05:28:58;;;;;;;2.15;1.02;;;10.80;74.80;;;;;;5040722;28;20169;-77
2024/04/02 05:31:24;;;;;;;1.10;0.90;;;10.80;74.70;;;;;;5039531;28;20178;-76
2024/04/02 05:33:50;;;;;;;1.58;1.13;;;10.80;74.30;;;;;;5040362;28;20060;-76
2024/04/02 05:36:18;;;;;;;1.08;0.65;;;10.90;75.00;;;;;;5040841;28;20918;-77
2024/04/02 05:38:44;;;;;;;1.45;0.70;;;10.90;75.30;;;;;;5054017;28;20052;-76
2024/04/02 05:41:10;;;;;;;4.28;1.50;;;10.90;79.20;;;;;;5041227;28;20075;-76
2024/04/02 05:43:37;;;;;;;1.73;1.00;;;10.90;75.90;;;;;;5040629;28;20067;-76
2024/04/02 05:46:05;;;;;;;2.67;1.40;;;10.90;76.00;;;;;;5056325;28;20447;-76
2024/04/02 05:48:31;;;;;;;1.13;0.80;;;10.90;75.80;;;;;;5035887;28;20715;-77
2024/04/02 05:50:59;;;;;;;5.85;1.10;;;10.90;76.10;;;;;;5041701;28;20135;-77
2024/04/02 05:53:25;;;;;;;1.50;0.98;;;10.80;78.70;;;;;;5057969;28;20049;-77
2024/04/02 05:55:51;;;;;;;1.38;0.80;;;10.80;79.70;;;;;;5057481;28;20389;-77
2024/04/02 05:58:17;;;;;;;3.60;1.50;;;10.90;79.70;;;;;;5056476;28;20052;-77
2024/04/02 06:00:43;;;;;;;1.63;0.98;;;10.80;79.20;;;;;;5040379;28;20147;-77
2024/04/02 06:03:08;;;;;;;2.08;0.60;;;10.70;80.50;;;;;;5040587;28;20122;-77
2024/04/02 06:05:40;;;;;;;2.50;1.10;;;10.70;81.50;;;;;;5038946;28;20064;-77
2024/04/02 06:08:06;;;;;;;1.25;0.80;;;10.60;83.80;;;;;;5056580;28;20056;-77
2024/04/02 06:10:32;;;;;;;2.53;1.38;;;10.60;84.00;;;;;;5081241;28;20382;-76
2024/04/02 06:12:58;;;;;;;4.53;1.00;;;10.60;83.30;;;;;;5040724;28;20068;-76
2024/04/02 06:15:24;;;;;;;3.17;1.60;;;10.60;85.00;;;;;;5040703;28;20496;-76
2024/04/02 06:17:51;;;;;;;2.50;1.30;;;10.60;86.50;;;;;;5055377;28;20052;-76
2024/04/02 06:20:17;;;;;;;4.30;1.40;;;10.60;84.70;;;;;;5052287;28;20059;-76
2024/04/02 06:22:43;;;;;;;4.63;1.20;;;10.50;85.70;;;;;;5054046;28;20461;-76
2024/04/02 06:25:09;;;;;;;2.28;1.73;;;10.40;87.40;;;;;;5056715;28;20090;-76
2024/04/02 06:27:35;;;;;;;2.88;1.00;;;10.40;88.30;;;;;;5039971;28;20052;-76
2024/04/02 06:30:01;;;;;;;1.92;0.93;;;10.40;87.10;;;;;;5049801;28;20044;-76
2024/04/02 06:32:27;;;;;;;2.28;0.90;;;10.40;88.10;;;;;;5049809;28;20080;-76
2024/04/02 06:34:53;;;;;;;3.03;0.90;;;10.40;89.00;;;;;;5038951;28;20091;-77
2024/04/02 06:37:19;;;;;;;1.35;1.00;;;10.40;89.20;;;;;;5035827;28;20084;-76
2024/04/02 06:39:45;;;;;;;2.90;0.75;;;10.40;89.50;;;;;;5038716;28;20143;-75
2024/04/02 06:42:11;;;;;;;3.47;0.80;;;10.40;90.10;;;;;;5056066;28;20051;-76
2024/04/02 06:44:39;;;;;;;1.35;1.00;;;10.40;89.90;;;;;;5055040;28;20048;-75
2024/04/02 06:47:06;;;;;;;1.60;0.90;;;10.50;88.10;;;;;;5054225;28;20500;-76
2024/04/02 06:49:32;;;;;;;1.98;1.08;;;10.50;86.50;;;;;;5075956;28;20040;-76
2024/04/02 06:51:58;;;;;;;2.78;1.45;;;10.70;86.30;;;;;;5039195;28;20051;-76
2024/04/02 06:54:23;;;;;;;3.08;1.40;;;10.80;84.20;;;;;;5036870;28;20063;-76
2024/04/02 06:56:52;;;;;;;2.53;1.30;;;10.90;83.50;;;;;;5037286;28;20060;-75
2024/04/02 06:59:20;;;;;;;0.90;0.60;;;11.00;81.10;;;;;;5039230;28;20057;-76
2024/04/02 07:01:46;;;;;;;2.03;0.70;;;11.10;80.00;;;;;;5036481;28;20076;-76
2024/04/02 07:04:14;;;;;;;0.70;0.60;;;11.10;79.50;;;;;;5039212;28;20178;-76
2024/04/02 07:06:40;;;;;;;1.95;0.80;;;11.10;79.00;;;;;;5056003;28;20060;-76
2024/04/02 07:09:08;;;;;;;1.08;0.70;;;11.10;80.00;;;;;;5055836;28;20052;-76
2024/04/02 07:11:37;;;;;;;0.77;0.60;;;11.10;76.90;;;;;;5052997;28;20052;-76
2024/04/02 07:14:03;;;;;;;0.60;0.60;;;11.20;76.00;;;;;;5031591;28;20049;-76
2024/04/02 07:16:29;;;;;;;0.80;0.60;;;11.30;77.00;;;;;;5036911;28;20110;-76
2024/04/02 07:18:55;;;;;;;0.57;0.57;;;11.40;74.90;;;;;;5036716;28;20052;-76
2024/04/02 07:21:20;;;;;;;3.60;0.70;;;11.40;72.60;;;;;;5036696;28;20462;-76
2024/04/02 07:23:46;;;;;;;1.17;0.60;;;11.50;72.90;;;;;;5039065;28;20060;-75
2024/04/02 07:26:12;;;;;;;0.80;0.70;;;11.60;71.00;;;;;;5039399;28;20061;-76
2024/04/02 07:28:39;;;;;;;1.15;0.68;;;11.60;69.50;;;;;;5055757;28;20048;-76
2024/04/02 07:31:05;;;;;;;1.40;0.60;;;11.60;69.60;;;;;;5050249;28;20384;-76
2024/04/02 07:33:31;;;;;;;0.73;0.47;;;11.60;69.00;;;;;;5055846;28;20052;-75
2024/04/02 07:35:57;;;;;;;0.65;0.45;;;11.70;68.80;;;;;;5055468;28;20059;-76
2024/04/02 07:38:23;;;;;;;0.40;0.40;;;11.70;68.40;;;;;;5056185;28;20389;-76
2024/04/02 07:40:50;;;;;;;2.80;0.63;;;11.70;68.20;;;;;;5038846;28;20060;-76
2024/04/02 07:43:16;;;;;;;0.95;0.60;;;11.70;69.10;;;;;;5038535;28;20174;-75
2024/04/02 07:45:50;;;;;;;1.10;0.70;;;11.80;69.50;;;;;;5038468;28;20048;-76
2024/04/02 07:48:20;;;;;;;1.95;0.70;;;11.90;68.30;;;;;;5038584;28;20051;-76
2024/04/02 07:50:51;;;;;;;3.50;0.57;;;11.80;67.40;;;;;;5037271;28;20044;-76
2024/04/02 07:53:17;;;;;;;2.90;0.50;;;11.90;67.50;;;;;;5047920;28;20056;-76
2024/04/02 07:55:44;;;;;;;0.70;0.60;;;11.90;67.20;;;;;;5055493;28;20063;-76
2024/04/02 07:58:12;;;;;;;0.82;0.50;;;11.90;68.30;;;;;;5036861;28;20052;-76
2024/04/02 08:00:41;;;;;;;1.77;0.52;;;12.00;68.40;;;;;;5035385;28;20072;-76
2024/04/02 08:03:07;;;;;;;0.70;0.57;;;12.10;67.20;;;;;;5054458;28;20059;-76
2024/04/02 08:05:33;;;;;;;1.17;0.50;;;12.10;67.10;;;;;;5054510;28;20543;-76
2024/04/02 08:07:59;;;;;;;0.55;0.50;;;12.20;66.30;;;;;;5037741;28;20044;-76
2024/04/02 08:10:27;;;;;;;0.40;0.40;;;12.30;66.30;;;;;;5037612;28;20056;-76
2024/04/02 08:12:55;;;;;;;1.50;0.60;;;12.40;65.90;;;;;;5037739;28;20395;-78
2024/04/02 08:15:21;;;;;;;1.42;0.57;;;12.40;65.50;;;;;;5054443;28;20114;-78
2024/04/02 08:17:47;;;;;;;0.98;0.52;;;12.40;65.30;;;;;;5054665;28;20052;-79
2024/04/02 08:20:14;;;;;;;3.30;0.35;;;12.40;65.20;;;;;;5051376;28;20053;-78
2024/04/02 08:22:40;;;;;;;2.05;0.43;;;12.50;64.40;;;;;;5036624;28;20067;-78
2024/04/02 08:25:07;;;;;;;0.68;0.50;;;12.40;63.60;;;;;;5039233;28;20060;-77
2024/04/02 08:27:33;;;;;;;1.35;0.50;;;12.50;64.80;;;;;;5054573;28;20412;-78
2024/04/02 08:29:59;;;;;;;1.08;0.52;;;12.50;64.70;;;;;;5053160;28;20477;-79
2024/04/02 08:32:28;;;;;;;0.82;0.50;;;12.60;64.00;;;;;;5037462;28;20052;-78
2024/04/02 08:34:54;;;;;;;0.98;0.52;;;12.80;64.10;;;;;;5037568;28;20048;-78
2024/04/02 08:37:22;;;;;;;2.53;0.60;;;12.90;62.90;;;;;;5035850;28;20072;-78
2024/04/02 08:39:48;;;;;;;0.45;0.40;;;12.90;63.20;;;;;;5038826;28;20049;-78
2024/04/02 08:42:14;;;;;;;1.60;0.43;;;13.00;62.90;;;;;;5037736;28;20060;-78
2024/04/02 08:44:41;;;;;;;0.95;0.50;;;13.20;62.90;;;;;;5037852;28;20063;-78
2024/04/02 08:47:09;;;;;;;1.35;0.40;;;13.40;61.20;;;;;;5051830;28;20048;-78
2024/04/02 08:49:38;;;;;;;2.42;0.50;;;13.60;59.90;;;;;;5036639;28;20362;-78
2024/04/02 08:52:05;;;;;;;0.75;0.50;;;13.70;58.20;;;;;;5086941;28;20055;-78
2024/04/02 08:54:33;;;;;;;0.52;0.30;;;13.90;57.50;;;;;;5070245;28;20053;-78
2024/04/02 08:57:01;;;;;;;0.52;0.35;;;14.10;57.20;;;;;;5039126;28;20439;-78
2024/04/02 08:59:32;;;;;;;1.83;0.30;;;14.10;56.30;;;;;;5054417;28;20075;-78
2024/04/02 09:02:00;;;;;;;0.30;0.30;;;14.30;56.40;;;;;;5086417;28;20056;-78
2024/04/02 09:04:29;;;;;;;0.82;0.30;;;14.30;55.30;;;;;;5085168;28;20060;-79
2024/04/02 09:06:57;;;;;;;0.95;0.40;;;14.30;55.50;;;;;;5050884;28;20107;-79
2024/04/02 09:09:27;;;;;;;0.65;0.30;;;14.20;55.40;;;;;;5041349;28;20473;-79
2024/04/02 09:11:56;;;;;;;0.80;0.30;;;14.10;55.80;;;;;;5058411;28;20052;-78
2024/04/02 09:14:25;;;;;;;0.25;0.20;;;14.00;56.00;;;;;;5058343;28;20052;-78
2024/04/02 09:16:55;;;;;;;4.25;0.80;;;13.90;56.50;;;;;;5041729;28;20427;-78
2024/04/02 09:19:20;;;;;;;0.50;0.40;;;13.90;57.50;;;;;;5046455;28;20049;-79
2024/04/02 09:21:46;;;;;;;0.47;0.40;;;13.80;57.50;;;;;;5058061;28;20166;-79
2024/04/02 09:24:13;;;;;;;0.25;0.20;;;13.90;57.20;;;;;;5040944;28;20063;-79
2024/04/02 09:26:38;;;;;;;0.55;0.40;;;13.90;57.40;;;;;;5043065;28;20447;-78
2024/04/02 09:29:04;;;;;;;0.43;0.32;;;13.90;57.00;;;;;;5057735;28;20127;-79
2024/04/02 09:31:32;;;;;;;0.65;0.30;;;14.00;56.30;;;;;;5041378;28;20083;-78
2024/04/02 09:34:03;;;;;;;5.05;0.38;;;14.10;54.80;;;;;;5082030;28;20048;-78
2024/04/02 09:36:52;;;;;;;0.30;0.30;;;14.10;54.60;;;;;;5040811;28;20060;-79
2024/04/02 09:39:21;;;;;;;0.40;0.20;;;14.00;54.40;;;;;;5057667;28;20059;-78
2024/04/02 09:41:50;;;;;;;1.48;0.30;;;13.80;54.50;;;;;;5068021;28;20067;-78
2024/04/02 09:44:18;;;;;;;0.30;0.20;;;13.80;55.80;;;;;;5077790;28;20076;-78
2024/04/02 09:46:44;;;;;;;0.77;0.30;;;13.70;57.40;;;;;;5041006;28;20052;-78
2024/04/02 09:49:14;;;;;;;0.80;0.40;;;13.70;56.30;;;;;;5041045;28;20538;-78
2024/04/02 09:51:41;;;;;;;0.47;0.30;;;13.80;57.10;;;;;;5039381;28;20053;-78
2024/04/02 09:54:08;;;;;;;3.13;0.60;;;14.00;56.60;;;;;;5046090;28;20052;-79
2024/04/02 09:56:37;;;;;;;0.50;0.20;;;14.30;56.20;;;;;;5085490;28;20052;-78
2024/04/02 09:59:06;;;;;;;0.70;0.30;;;14.70;55.90;;;;;;5040961;28;20060;-79
2024/04/02 10:01:35;;;;;;;0.75;0.30;;;15.20;54.60;;;;;;5071275;28;20053;-79
2024/04/02 10:04:05;;;;;;;1.45;0.45;;;15.70;54.40;;;;;;5070358;28;20482;-79
2024/04/02 10:06:35;;;;;;;0.13;0.13;;;16.20;53.30;;;;;;5040764;28;20443;-79
2024/04/02 10:09:06;;;;;;;0.52;0.13;;;16.70;52.60;;;;;;5040364;28;20052;-78
2024/04/02 10:11:39;;;;;;;0.40;0.38;;;16.80;47.30;;;;;;5056900;28;20389;-79
2024/04/02 10:14:12;;;;;;;0.57;0.40;;;16.80;47.90;;;;;;5039579;28;20048;-79
2024/04/02 10:16:45;;;;;;;0.10;0.10;;;16.90;48.10;;;;;;5040586;28;20053;-79
2024/04/02 10:19:13;;;;;;;0.47;0.30;;;16.90;46.80;;;;;;5037604;28;20083;-79
2024/04/02 10:21:41;;;;;;;1.40;0.30;;;16.50;46.70;;;;;;5039651;28;20056;-79
2024/04/02 10:24:11;;;;;;;0.20;0.20;;;16.40;48.50;;;;;;5039507;28;20053;-79
2024/04/02 10:26:39;;;;;;;2.10;0.28;;;16.20;48.00;;;;;;5040191;28;20057;-78
2024/04/02 10:29:05;;;;;;;0.30;0.20;;;16.10;48.00;;;;;;5039024;28;20061;-78
2024/04/02 10:31:38;;;;;;;0.52;0.30;;;16.10;48.70;;;;;;5039136;28;20056;-79
2024/04/02 10:34:12;;;;;;;1.05;0.35;;;16.20;47.40;;;;;;5045131;28;20052;-78
2024/04/02 10:36:40;;;;;;;0.32;0.30;;;16.20;47.30;;;;;;5039641;28;20056;-78
2024/04/02 10:39:10;;;;;;;0.77;0.30;;;15.90;47.00;;;;;;5038859;28;20060;-78
2024/04/02 10:41:45;;;;;;;0.30;0.30;;;15.50;47.90;;;;;;5039567;28;20052;-78
2024/04/02 10:44:17;;;;;;;0.55;0.30;;;15.00;48.90;;;;;;5071812;28;20044;-78
2024/04/02 10:46:43;;;;;;;0.98;0.20;;;14.80;52.00;;;;;;5073202;28;20061;-79
2024/04/02 10:49:09;;;;;;;1.60;0.40;;;14.70;53.40;;;;;;5039297;28;20186;-79
2024/04/02 10:51:35;;;;;;;0.20;0.20;;;14.80;53.80;;;;;;5036170;28;20055;-79
2024/04/02 10:54:01;;;;;;;0.75;0.28;;;14.90;54.30;;;;;;5056204;28;20388;-79
2024/04/02 10:56:30;;;;;;;0.20;0.20;;;15.50;52.40;;;;;;5038279;28;20048;-79
2024/04/02 10:58:57;;;;;;;0.35;0.30;;;16.30;50.80;;;;;;5039090;28;20492;-79
2024/04/02 11:01:23;;;;;;;0.57;0.20;;;16.50;49.80;;;;;;5056894;28;20405;-79
2024/04/02 11:03:50;;;;;;;0.40;0.28;;;16.50;49.00;;;;;;5055428;28;20067;-79
2024/04/02 11:06:17;;;;;;;0.32;0.30;;;16.10;48.70;;;;;;5039040;28;20063;-79
2024/04/02 11:08:49;;;;;;;0.28;0.20;;;15.90;50.50;;;;;;5055785;28;20405;-78
2024/04/02 11:11:22;;;;;;;1.10;0.30;;;15.80;51.20;;;;;;5039574;28;20056;-78
2024/04/02 11:13:49;;;;;;;1.92;0.20;;;15.60;52.40;;;;;;5037365;28;20045;-79
2024/04/02 11:16:15;;;;;;;0.30;0.20;;;15.40;52.70;;;;;;5055319;28;20048;-79
2024/04/02 11:18:41;;;;;;;1.63;0.52;;;15.20;52.40;;;;;;5039374;28;20052;-78
2024/04/02 11:21:15;;;;;;;0.35;0.35;;;14.90;54.10;;;;;;5069477;28;20507;-79
2024/04/02 11:26:27;;;;;;;0.73;0.20;;;13.90;57.50;;;;;;5055244;28;20060;-76
2024/04/02 11:29:09;;;;;;;0.35;0.30;;;13.60;59.50;;;;;;5072265;28;20041;-77
2024/04/02 11:31:35;;;;;;;0.22;0.22;;;13.60;59.90;;;;;;5039955;28;20048;-77
2024/04/02 11:34:04;;;;;;;0.30;0.30;;;13.70;58.80;;;;;;5034404;28;20056;-77
2024/04/02 11:36:33;;;;;;;1.17;0.30;;;13.90;57.50;;;;;;5054787;28;20068;-77
2024/04/02 11:38:59;;;;;;;0.40;0.25;;;14.30;58.80;;;;;;5054948;28;20053;-77
2024/04/02 11:41:26;;;;;;;0.65;0.30;;;14.90;57.10;;;;;;5054820;28;20128;-77
2024/04/02 11:43:52;;;;;;;0.32;0.30;;;15.70;55.40;;;;;;5039518;28;20053;-77
2024/04/02 11:46:18;;;;;;;0.30;0.30;;;16.70;53.40;;;;;;5038358;28;20064;-77
2024/04/02 11:48:44;;;;;;;2.63;0.35;;;17.70;50.40;;;;;;5055384;28;20385;-77
2024/04/02 11:51:10;;;;;;;0.77;0.45;;;18.40;48.90;;;;;;5038401;28;20048;-77
2024/04/02 11:53:36;;;;;;;1.05;0.20;;;18.70;47.50;;;;;;5054958;28;20396;-77
2024/04/02 11:56:04;;;;;;;0.20;0.15;;;19.00;45.50;;;;;;5037932;28;20153;-77
2024/04/02 12:01:14;;;;;;;;;;;19.10;48.30;;;;;;5049334;28;20060;-78
2024/04/02 12:03:40;;;;;;;0.90;0.13;;;19.70;47.30;;;;;;5054851;28;19976;-77
2024/04/02 12:06:06;;;;;;;2.08;0.30;;;20.10;43.90;;;;;;5037593;28;20060;-77
2024/04/02 12:08:32;;;;;;;1.75;0.30;;;20.10;43.70;;;;;;5053935;28;20068;-77
2024/04/02 12:10:58;;;;;;;0.40;0.20;;;19.20;43.00;;;;;;5038027;28;20495;-77
2024/04/02 12:13:24;;;;;;;2.40;0.20;;;17.80;45.70;;;;;;5054286;28;20062;-77
2024/04/02 12:15:50;;;;;;;0.47;0.10;;;16.70;46.50;;;;;;5034488;28;20048;-77
2024/04/02 12:18:18;;;;;;;1.45;0.20;;;16.60;48.20;;;;;;5037921;28;20052;-76
2024/04/02 12:20:47;;;;;;;1.63;0.15;;;16.50;48.70;;;;;;5037499;28;20053;-77
2024/04/02 12:23:12;;;;;;;6.22;0.40;;;16.10;49.30;;;;;;5037720;28;20064;-77
2024/04/02 12:25:38;;;;;;;0.68;0.50;;;15.60;51.10;;;;;;5037350;28;20060;-79
2024/04/02 12:28:04;;;;;;;3.53;0.40;;;15.60;52.70;;;;;;5037326;28;20052;-76
2024/04/02 12:30:30;;;;;;;0.22;0.20;;;16.10;53.60;;;;;;5037902;28;20203;-76
2024/04/02 12:32:59;;;;;;;0.77;0.30;;;17.30;52.10;;;;;;5054310;28;20052;-76
2024/04/02 12:35:28;;;;;;;1.13;0.20;;;18.80;49.80;;;;;;5053881;28;20052;-77
2024/04/02 12:37:54;;;;;;;1.20;0.30;;;20.20;46.40;;;;;;5054050;28;20075;-77
2024/04/02 12:40:22;;;;;;;0.77;0.40;;;21.40;44.50;;;;;;5040084;28;20075;-77
2024/04/02 12:42:48;;;;;;;1.95;0.20;;;22.70;41.70;;;;;;5056319;28;20052;-78
2024/04/02 12:45:16;;;;;;;1.60;0.40;;;23.70;41.00;;;;;;5040081;28;20056;-77
2024/04/02 12:47:44;;;;;;;2.80;0.47;;;24.90;37.80;;;;;;5056346;28;20064;-78
2024/04/02 12:50:11;;;;;;;1.70;0.25;;;25.50;36.70;;;;;;5056602;28;20048;-78
2024/04/02 12:52:39;;;;;;;1.40;0.38;;;26.20;35.40;;;;;;5039828;28;20060;-78
2024/04/02 12:55:05;;;;;;;1.17;0.40;;;26.40;33.10;;;;;;5039953;28;20067;-78